sensor_id;sensor_type;location;lat;lon;timestamp;pressure;altitude;pressure_sealevel;temperature;humidity
71105;BME280;58760;48.716;8.962;2023-03-22T00:00:43;96323.69;;;8.48;82.04
71105;BME280;58760;48.716;8.962;2023-03-22T00:03:09;96322.53;;;8.42;82.28
71105;BME280;58760;48.716;8.962;2023-03-22T00:05:34;96330.25;;;8.27;84.62
71105;BME280;58760;48.716;8.962;2023-03-22T00:08:00;96326.91;;;8.17;85.07
71105;BME280;58760;48.716;8.962;2023-03-22T00:10:30;96325.31;;;8.49;83.85
71105;BME280;58760;48.716;8.962;2023-03-22T00:12:56;96320.34;;;8.29;83.85
71105;BME280;58760;48.716;8.962;2023-03-22T00:15:21;96316.03;;;8.20;84.47
71105;BME280;58760;48.716;8.962;2023-03-22T00:17:47;96320.16;;;8.15;84.71
71105;BME280;58760;48.716;8.962;2023-03-22T00:20:14;96315.53;;;8.09;85.14
71105;BME280;58760;48.716;8.962;2023-03-22T00:22:41;96315.81;;;7.98;86.37
71105;BME280;58760;48.716;8.962;2023-03-22T00:25:07;96318.78;;;7.95;86.45
71105;BME280;58760;48.716;8.962;2023-03-22T00:27:32;96315.66;;;7.99;87.46
71105;BME280;58760;48.716;8.962;2023-03-22T00:29:58;96314.66;;;7.92;87.30
71105;BME280;58760;48.716;8.962;2023-03-22T00:32:23;96317.63;;;7.89;87.72
71105;BME280;58760;48.716;8.962;2023-03-22T00:34:48;96320.91;;;7.91;87.45
71105;BME280;58760;48.716;8.962;2023-03-22T00:37:14;96311.03;;;7.93;86.97
71105;BME280;58760;48.716;8.962;2023-03-22T00:39:41;96315.63;;;7.91;86.96
71105;BME280;58760;48.716;8.962;2023-03-22T00:42:07;96314.47;;;7.94;87.05
71105;BME280;58760;48.716;8.962;2023-03-22T00:44:32;96317.94;;;7.94;87.01
71105;BME280;58760;48.716;8.962;2023-03-22T00:46:57;96312.00;;;7.92;87.21
71105;BME280;58760;48.716;8.962;2023-03-22T00:49:23;96304.88;;;7.84;87.24
71105;BME280;58760;48.716;8.962;2023-03-22T00:51:49;96309.00;;;7.79;87.60
71105;BME280;58760;48.716;8.962;2023-03-22T00:54:15;96297.44;;;7.72;87.37
71105;BME280;58760;48.716;8.962;2023-03-22T00:56:42;96301.88;;;7.71;87.18
71105;BME280;58760;48.716;8.962;2023-03-22T00:59:12;96287.19;;;7.69;87.24
71105;BME280;58760;48.716;8.962;2023-03-22T01:01:38;96295.25;;;7.67;87.68
71105;BME280;58760;48.716;8.962;2023-03-22T01:04:04;96284.38;;;7.62;87.51
71105;BME280;58760;48.716;8.962;2023-03-22T01:06:31;96285.66;;;7.58;87.85
71105;BME280;58760;48.716;8.962;2023-03-22T01:08:57;96274.59;;;7.55;87.80
71105;BME280;58760;48.716;8.962;2023-03-22T01:11:23;96280.19;;;7.52;88.39
71105;BME280;58760;48.716;8.962;2023-03-22T01:13:48;96282.00;;;7.43;88.09
71105;BME280;58760;48.716;8.962;2023-03-22T01:16:14;96287.41;;;7.33;88.32
71105;BME280;58760;48.716;8.962;2023-03-22T01:18:40;96277.81;;;7.24;88.87
71105;BME280;58760;48.716;8.962;2023-03-22T01:21:06;96269.31;;;7.13;88.82
71105;BME280;58760;48.716;8.962;2023-03-22T01:23:31;96270.13;;;7.05;88.97
71105;BME280;58760;48.716;8.962;2023-03-22T01:25:56;96270.59;;;7.01;89.09
71105;BME280;58760;48.716;8.962;2023-03-22T01:28:22;96264.59;;;6.91;89.30
71105;BME280;58760;48.716;8.962;2023-03-22T01:30:47;96259.78;;;6.86;89.77
71105;BME280;58760;48.716;8.962;2023-03-22T01:33:14;96263.75;;;6.82;90.29
71105;BME280;58760;48.716;8.962;2023-03-22T01:35:39;96253.81;;;6.76;90.82
71105;BME280;58760;48.716;8.962;2023-03-22T01:38:05;96258.09;;;6.77;91.38
71105;BME280;58760;48.716;8.962;2023-03-22T01:40:32;96256.16;;;6.79;91.61
71105;BME280;58760;48.716;8.962;2023-03-22T01:42:57;96255.50;;;6.85;91.61
71105;BME280;58760;48.716;8.962;2023-03-22T01:50:59;96262.06;;;6.81;92.65
71105;BME280;58760;48.716;8.962;2023-03-22T01:53:31;96258.09;;;6.77;92.46
71105;BME280;58760;48.716;8.962;2023-03-22T01:55:58;96257.13;;;6.78;92.53
71105;BME280;58760;48.716;8.962;2023-03-22T01:58:24;96256.28;;;6.77;92.81
71105;BME280;58760;48.716;8.962;2023-03-22T02:00:50;96252.16;;;6.75;92.83
71105;BME280;58760;48.716;8.962;2023-03-22T02:03:23;96252.78;;;6.69;92.79
71105;BME280;58760;48.716;8.962;2023-03-22T02:05:51;96252.25;;;6.65;92.94
71105;BME280;58760;48.716;8.962;2023-03-22T02:08:18;96249.44;;;6.59;93.01
71105;BME280;58760;48.716;8.962;2023-03-22T02:10:44;96247.09;;;6.56;93.35
71105;BME280;58760;48.716;8.962;2023-03-22T02:13:26;96244.16;;;6.59;93.35
71105;BME280;58760;48.716;8.962;2023-03-22T02:16:31;96243.28;;;6.50;93.49
71105;BME280;58760;48.716;8.962;2023-03-22T02:27:59;96238.03;;;6.32;94.40
71105;BME280;58760;48.716;8.962;2023-03-22T02:33:44;96233.22;;;6.28;94.00
71105;BME280;58760;48.716;8.962;2023-03-22T02:39:14;96228.97;;;6.27;94.19
71105;BME280;58760;48.716;8.962;2023-03-22T02:42:07;96238.75;;;6.17;94.39
71105;BME280;58760;48.716;8.962;2023-03-22T02:47:37;96224.97;;;6.05;95.19
71105;BME280;58760;48.716;8.962;2023-03-22T02:52:49;96231.25;;;6.04;95.51
71105;BME280;58760;48.716;8.962;2023-03-22T02:55:30;96225.69;;;6.07;95.19
71105;BME280;58760;48.716;8.962;2023-03-22T02:58:18;96233.56;;;6.07;94.09
71105;BME280;58760;48.716;8.962;2023-03-22T03:00:46;96234.09;;;5.93;92.86
71105;BME280;58760;48.716;8.962;2023-03-22T03:03:16;96234.03;;;5.85;92.92
71105;BME280;58760;48.716;8.962;2023-03-22T03:05:52;96229.34;;;5.79;93.56
71105;BME280;58760;48.716;8.962;2023-03-22T03:08:19;96233.06;;;5.86;94.35
71105;BME280;58760;48.716;8.962;2023-03-22T03:10:45;96229.28;;;5.89;94.67
71105;BME280;58760;48.716;8.962;2023-03-22T03:13:16;96228.75;;;6.03;94.70
71105;BME280;58760;48.716;8.962;2023-03-22T03:15:43;96228.22;;;6.17;94.49
71105;BME280;58760;48.716;8.962;2023-03-22T03:18:14;96236.38;;;6.31;93.69
71105;BME280;58760;48.716;8.962;2023-03-22T03:23:39;96235.84;;;6.28;92.63
71105;BME280;58760;48.716;8.962;2023-03-22T03:26:34;96233.81;;;6.40;92.36
71105;BME280;58760;48.716;8.962;2023-03-22T03:29:20;96237.63;;;6.71;89.73
71105;BME280;58760;48.716;8.962;2023-03-22T03:34:58;96237.63;;;6.45;90.44
71105;BME280;58760;48.716;8.962;2023-03-22T03:37:40;96242.16;;;6.35;90.74
71105;BME280;58760;48.716;8.962;2023-03-22T03:40:14;96235.53;;;6.31;90.92
71105;BME280;58760;48.716;8.962;2023-03-22T03:42:45;96245.53;;;6.19;91.02
71105;BME280;58760;48.716;8.962;2023-03-22T03:45:13;96236.06;;;6.35;90.44
71105;BME280;58760;48.716;8.962;2023-03-22T03:47:42;96242.06;;;6.19;89.51
71105;BME280;58760;48.716;8.962;2023-03-22T03:50:08;96237.13;;;5.98;90.48
71105;BME280;58760;48.716;8.962;2023-03-22T03:52:35;96233.97;;;5.95;91.41
71105;BME280;58760;48.716;8.962;2023-03-22T03:55:01;96243.91;;;6.01;91.56
71105;BME280;58760;48.716;8.962;2023-03-22T03:57:26;96245.91;;;5.89;91.47
71105;BME280;58760;48.716;8.962;2023-03-22T03:59:51;96237.84;;;5.73;92.19
71105;BME280;58760;48.716;8.962;2023-03-22T04:02:17;96241.53;;;5.80;92.09
71105;BME280;58760;48.716;8.962;2023-03-22T04:04:42;96248.06;;;5.76;92.30
71105;BME280;58760;48.716;8.962;2023-03-22T04:07:07;96246.88;;;5.70;92.99
71105;BME280;58760;48.716;8.962;2023-03-22T04:09:35;96245.66;;;5.65;93.45
71105;BME280;58760;48.716;8.962;2023-03-22T04:12:01;96242.63;;;5.87;93.10
71105;BME280;58760;48.716;8.962;2023-03-22T04:14:27;96237.41;;;5.77;92.86
71105;BME280;58760;48.716;8.962;2023-03-22T04:16:53;96237.78;;;5.65;92.85
71105;BME280;58760;48.716;8.962;2023-03-22T04:19:19;96238.69;;;5.56;93.49
71105;BME280;58760;48.716;8.962;2023-03-22T04:21:45;96237.38;;;5.42;93.45
71105;BME280;58760;48.716;8.962;2023-03-22T04:24:11;96226.75;;;5.34;93.87
71105;BME280;58760;48.716;8.962;2023-03-22T04:26:36;96234.28;;;5.29;93.69
71105;BME280;58760;48.716;8.962;2023-03-22T04:29:02;96232.59;;;5.28;94.06
71105;BME280;58760;48.716;8.962;2023-03-22T04:31:29;96236.06;;;5.28;94.06
71105;BME280;58760;48.716;8.962;2023-03-22T04:33:54;96224.34;;;5.41;93.63
71105;BME280;58760;48.716;8.962;2023-03-22T04:36:24;96220.72;;;5.24;93.87
71105;BME280;58760;48.716;8.962;2023-03-22T04:38:49;96216.47;;;5.23;94.12
71105;BME280;58760;48.716;8.962;2023-03-22T04:41:16;96214.94;;;5.20;93.89
71105;BME280;58760;48.716;8.962;2023-03-22T04:43:41;96225.06;;;5.15;93.99
71105;BME280;58760;48.716;8.962;2023-03-22T04:46:11;96219.03;;;5.05;94.01
71105;BME280;58760;48.716;8.962;2023-03-22T04:48:38;96217.25;;;5.06;94.44
71105;BME280;58760;48.716;8.962;2023-03-22T04:51:05;96226.03;;;5.14;94.33
71105;BME280;58760;48.716;8.962;2023-03-22T04:53:31;96214.78;;;5.22;93.84
71105;BME280;58760;48.716;8.962;2023-03-22T04:55:56;96214.25;;;5.18;94.14
71105;BME280;58760;48.716;8.962;2023-03-22T04:58:23;96212.00;;;5.23;94.12
71105;BME280;58760;48.716;8.962;2023-03-22T05:00:49;96207.72;;;5.22;93.90
71105;BME280;58760;48.716;8.962;2023-03-22T05:03:19;96202.47;;;5.22;94.06
71105;BME280;58760;48.716;8.962;2023-03-22T05:05:54;96201.78;;;5.20;93.51
71105;BME280;58760;48.716;8.962;2023-03-22T05:08:21;96195.56;;;5.21;93.70
71105;BME280;58760;48.716;8.962;2023-03-22T05:10:50;96196.16;;;5.15;93.80
71105;BME280;58760;48.716;8.962;2023-03-22T05:13:17;96199.44;;;5.17;93.74
71105;BME280;58760;48.716;8.962;2023-03-22T05:15:42;96201.22;;;5.26;93.68
71105;BME280;58760;48.716;8.962;2023-03-22T05:18:08;96199.09;;;5.48;92.48
71105;BME280;58760;48.716;8.962;2023-03-22T05:20:33;96193.25;;;5.71;90.99
71105;BME280;58760;48.716;8.962;2023-03-22T05:22:59;96197.75;;;5.61;91.11
71105;BME280;58760;48.716;8.962;2023-03-22T05:25:27;96199.72;;;5.42;91.41
71105;BME280;58760;48.716;8.962;2023-03-22T05:27:53;96199.53;;;5.43;91.38
71105;BME280;58760;48.716;8.962;2023-03-22T05:30:20;96188.28;;;5.51;91.41
71105;BME280;58760;48.716;8.962;2023-03-22T05:32:45;96203.00;;;5.44;91.61
71105;BME280;58760;48.716;8.962;2023-03-22T05:35:11;96193.69;;;5.32;91.94
71105;BME280;58760;48.716;8.962;2023-03-22T05:37:38;96196.91;;;5.25;92.51
71105;BME280;58760;48.716;8.962;2023-03-22T05:40:04;96198.13;;;5.31;92.82
71105;BME280;58760;48.716;8.962;2023-03-22T05:42:30;96197.16;;;5.32;92.61
71105;BME280;58760;48.716;8.962;2023-03-22T05:44:56;96199.19;;;5.38;92.43
71105;BME280;58760;48.716;8.962;2023-03-22T05:47:22;96201.94;;;5.37;92.37
71105;BME280;58760;48.716;8.962;2023-03-22T05:49:47;96204.00;;;5.43;92.80
71105;BME280;58760;48.716;8.962;2023-03-22T05:52:12;96205.34;;;5.47;92.56
71105;BME280;58760;48.716;8.962;2023-03-22T05:54:38;96206.88;;;5.49;92.37
71105;BME280;58760;48.716;8.962;2023-03-22T05:57:03;96201.59;;;5.49;92.00
71105;BME280;58760;48.716;8.962;2023-03-22T05:59:28;96203.75;;;5.54;91.99
71105;BME280;58760;48.716;8.962;2023-03-22T06:01:54;96209.34;;;5.68;91.80
71105;BME280;58760;48.716;8.962;2023-03-22T06:04:19;96217.94;;;5.88;91.03
71105;BME280;58760;48.716;8.962;2023-03-22T06:06:45;96215.59;;;5.85;90.31
71105;BME280;58760;48.716;8.962;2023-03-22T06:09:11;96218.91;;;5.87;90.23
71105;BME280;58760;48.716;8.962;2023-03-22T06:11:38;96218.38;;;6.01;90.14
71105;BME280;58760;48.716;8.962;2023-03-22T06:14:04;96222.97;;;5.99;89.73
71105;BME280;58760;48.716;8.962;2023-03-22T06:16:29;96212.81;;;6.04;89.82
71105;BME280;58760;48.716;8.962;2023-03-22T06:18:54;96226.88;;;6.13;89.52
71105;BME280;58760;48.716;8.962;2023-03-22T06:21:20;96223.16;;;6.49;88.58
71105;BME280;58760;48.716;8.962;2023-03-22T06:23:46;96219.75;;;6.57;87.47
71105;BME280;58760;48.716;8.962;2023-03-22T06:26:11;96226.13;;;6.80;87.20
71105;BME280;58760;48.716;8.962;2023-03-22T06:28:36;96224.69;;;6.86;86.84
71105;BME280;58760;48.716;8.962;2023-03-22T06:31:06;96225.56;;;6.94;87.18
71105;BME280;58760;48.716;8.962;2023-03-22T06:33:33;96232.84;;;7.00;87.34
71105;BME280;58760;48.716;8.962;2023-03-22T06:35:58;96223.22;;;7.33;85.84
71105;BME280;58760;48.716;8.962;2023-03-22T06:38:24;96225.13;;;7.57;85.34
71105;BME280;58760;48.716;8.962;2023-03-22T06:40:50;96226.41;;;7.53;85.37
71105;BME280;58760;48.716;8.962;2023-03-22T06:43:15;96236.28;;;7.43;85.79
71105;BME280;58760;48.716;8.962;2023-03-22T06:45:40;96239.00;;;7.67;85.33
71105;BME280;58760;48.716;8.962;2023-03-22T06:48:06;96231.56;;;7.54;85.96
71105;BME280;58760;48.716;8.962;2023-03-22T06:50:31;96229.56;;;7.56;86.21
71105;BME280;58760;48.716;8.962;2023-03-22T06:52:58;96227.28;;;7.77;85.91
71105;BME280;58760;48.716;8.962;2023-03-22T06:55:23;96220.19;;;7.78;85.99
71105;BME280;58760;48.716;8.962;2023-03-22T06:57:48;96226.78;;;7.90;85.87
71105;BME280;58760;48.716;8.962;2023-03-22T07:00:14;96229.50;;;8.30;83.94
71105;BME280;58760;48.716;8.962;2023-03-22T07:02:40;96234.09;;;8.20;83.95
71105;BME280;58760;48.716;8.962;2023-03-22T07:05:06;96224.22;;;8.30;83.23
71105;BME280;58760;48.716;8.962;2023-03-22T07:07:31;96223.03;;;8.49;82.51
71105;BME280;58760;48.716;8.962;2023-03-22T07:09:57;96212.59;;;8.64;81.73
71105;BME280;58760;48.716;8.962;2023-03-22T07:12:22;96218.81;;;8.87;81.07
71105;BME280;58760;48.716;8.962;2023-03-22T07:14:48;96219.97;;;8.92;80.18
71105;BME280;58760;48.716;8.962;2023-03-22T07:17:13;96219.13;;;8.92;79.41
71105;BME280;58760;48.716;8.962;2023-03-22T07:19:39;96213.69;;;8.93;79.62
71105;BME280;58760;48.716;8.962;2023-03-22T07:22:05;96217.94;;;8.94;79.34
71105;BME280;58760;48.716;8.962;2023-03-22T07:24:31;96220.75;;;9.01;78.87
71105;BME280;58760;48.716;8.962;2023-03-22T07:26:56;96216.97;;;9.04;78.11
71105;BME280;58760;48.716;8.962;2023-03-22T07:29:22;96207.16;;;9.12;77.71
71105;BME280;58760;48.716;8.962;2023-03-22T07:31:47;96206.44;;;9.26;77.41
71105;BME280;58760;48.716;8.962;2023-03-22T07:34:12;96211.03;;;9.32;76.57
71105;BME280;58760;48.716;8.962;2023-03-22T07:36:38;96217.44;;;9.46;75.68
71105;BME280;58760;48.716;8.962;2023-03-22T07:39:03;96210.53;;;9.60;76.06
71105;BME280;58760;48.716;8.962;2023-03-22T07:41:30;96216.16;;;9.65;75.60
71105;BME280;58760;48.716;8.962;2023-03-22T07:43:55;96202.34;;;9.77;76.32
71105;BME280;58760;48.716;8.962;2023-03-22T07:46:21;96209.34;;;9.93;75.88
71105;BME280;58760;48.716;8.962;2023-03-22T07:48:46;96206.28;;;10.04;75.59
71105;BME280;58760;48.716;8.962;2023-03-22T07:51:12;96212.34;;;10.35;73.92
71105;BME280;58760;48.716;8.962;2023-03-22T07:53:37;96205.59;;;10.47;74.45
71105;BME280;58760;48.716;8.962;2023-03-22T07:56:03;96206.47;;;10.63;72.19
71105;BME280;58760;48.716;8.962;2023-03-22T07:58:29;96207.22;;;10.86;72.80
71105;BME280;58760;48.716;8.962;2023-03-22T08:00:54;96206.28;;;10.93;71.32
71105;BME280;58760;48.716;8.962;2023-03-22T08:03:20;96206.22;;;11.01;71.14
71105;BME280;58760;48.716;8.962;2023-03-22T08:05:46;96203.72;;;11.00;71.23
71105;BME280;58760;48.716;8.962;2023-03-22T08:08:12;96213.91;;;11.11;72.39
71105;BME280;58760;48.716;8.962;2023-03-22T08:10:38;96201.44;;;11.26;70.75
71105;BME280;58760;48.716;8.962;2023-03-22T08:13:03;96206.06;;;11.39;70.34
71105;BME280;58760;48.716;8.962;2023-03-22T08:15:29;96204.25;;;11.39;70.59
71105;BME280;58760;48.716;8.962;2023-03-22T08:17:55;96202.31;;;11.48;71.12
71105;BME280;58760;48.716;8.962;2023-03-22T08:20:23;96196.53;;;11.44;70.06
71105;BME280;58760;48.716;8.962;2023-03-22T08:22:51;96199.78;;;11.61;69.83
71105;BME280;58760;48.716;8.962;2023-03-22T08:25:17;96200.91;;;11.67;69.61
71105;BME280;58760;48.716;8.962;2023-03-22T08:27:42;96199.41;;;11.79;69.51
71105;BME280;58760;48.716;8.962;2023-03-22T08:30:09;96193.91;;;11.80;68.99
71105;BME280;58760;48.716;8.962;2023-03-22T08:32:35;96206.97;;;11.96;69.58
71105;BME280;58760;48.716;8.962;2023-03-22T08:35:00;96199.03;;;12.03;69.31
71105;BME280;58760;48.716;8.962;2023-03-22T08:37:26;96196.28;;;12.11;68.32
71105;BME280;58760;48.716;8.962;2023-03-22T08:39:51;96201.22;;;12.14;67.18
71105;BME280;58760;48.716;8.962;2023-03-22T08:42:16;96194.22;;;12.13;67.75
71105;BME280;58760;48.716;8.962;2023-03-22T08:44:42;96192.97;;;12.30;67.92
71105;BME280;58760;48.716;8.962;2023-03-22T08:47:07;96187.47;;;12.32;66.72
71105;BME280;58760;48.716;8.962;2023-03-22T08:49:33;96189.75;;;12.35;67.61
71105;BME280;58760;48.716;8.962;2023-03-22T08:51:58;96185.28;;;12.42;67.27
71105;BME280;58760;48.716;8.962;2023-03-22T08:54:24;96191.03;;;12.45;66.60
71105;BME280;58760;48.716;8.962;2023-03-22T08:56:52;96193.06;;;12.43;67.72
71105;BME280;58760;48.716;8.962;2023-03-22T08:59:17;96191.78;;;12.61;66.05
71105;BME280;58760;48.716;8.962;2023-03-22T09:01:43;96192.59;;;12.61;67.85
71105;BME280;58760;48.716;8.962;2023-03-22T09:04:08;96185.41;;;12.62;66.29
71105;BME280;58760;48.716;8.962;2023-03-22T09:06:33;96187.94;;;12.70;65.08
71105;BME280;58760;48.716;8.962;2023-03-22T09:08:59;96186.25;;;12.90;66.55
71105;BME280;58760;48.716;8.962;2023-03-22T09:11:24;96189.38;;;13.00;66.52
71105;BME280;58760;48.716;8.962;2023-03-22T09:13:50;96178.41;;;13.09;66.35
71105;BME280;58760;48.716;8.962;2023-03-22T09:16:16;96173.09;;;13.16;63.86
71105;BME280;58760;48.716;8.962;2023-03-22T09:18:43;96170.44;;;13.16;66.13
71105;BME280;58760;48.716;8.962;2023-03-22T09:21:09;96168.25;;;13.26;64.40
71105;BME280;58760;48.716;8.962;2023-03-22T09:23:35;96174.00;;;13.30;64.72
71105;BME280;58760;48.716;8.962;2023-03-22T09:26:07;96167.66;;;13.37;64.99
71105;BME280;58760;48.716;8.962;2023-03-22T09:28:33;96164.97;;;13.31;63.14
71105;BME280;58760;48.716;8.962;2023-03-22T09:31:01;96174.44;;;13.46;64.23
71105;BME280;58760;48.716;8.962;2023-03-22T09:33:27;96165.03;;;13.50;64.22
71105;BME280;58760;48.716;8.962;2023-03-22T09:35:53;96164.59;;;13.40;62.51
71105;BME280;58760;48.716;8.962;2023-03-22T09:38:19;96151.97;;;13.62;64.48
71105;BME280;58760;48.716;8.962;2023-03-22T09:40:51;96167.13;;;13.61;61.92
71105;BME280;58760;48.716;8.962;2023-03-22T09:43:26;96171.63;;;13.54;62.58
71105;BME280;58760;48.716;8.962;2023-03-22T09:45:53;96165.53;;;13.74;62.73
71105;BME280;58760;48.716;8.962;2023-03-22T09:48:34;96162.44;;;13.77;62.68
71105;BME280;58760;48.716;8.962;2023-03-22T09:51:03;96151.81;;;13.96;61.33
71105;BME280;58760;48.716;8.962;2023-03-22T09:53:30;96142.81;;;14.17;61.53
71105;BME280;58760;48.716;8.962;2023-03-22T09:56:17;96141.75;;;13.98;59.59
71105;BME280;58760;48.716;8.962;2023-03-22T10:02:13;96138.28;;;13.98;62.30
71105;BME280;58760;48.716;8.962;2023-03-22T10:04:40;96129.25;;;13.92;61.17
71105;BME280;58760;48.716;8.962;2023-03-22T10:07:23;96128.66;;;14.17;61.92
71105;BME280;58760;48.716;8.962;2023-03-22T10:09:57;96118.81;;;14.24;62.66
71105;BME280;58760;48.716;8.962;2023-03-22T10:12:27;96118.44;;;14.33;61.03
71105;BME280;58760;48.716;8.962;2023-03-22T10:15:14;96107.75;;;14.46;60.23
71105;BME280;58760;48.716;8.962;2023-03-22T10:17:44;96106.91;;;14.46;61.06
71105;BME280;58760;48.716;8.962;2023-03-22T10:23:19;96092.59;;;15.04;59.80
71105;BME280;58760;48.716;8.962;2023-03-22T10:25:49;96088.84;;;15.12;56.06
71105;BME280;58760;48.716;8.962;2023-03-22T10:28:20;96092.38;;;15.06;55.06
71105;BME280;58760;48.716;8.962;2023-03-22T10:30:51;96082.81;;;15.30;55.99
71105;BME280;58760;48.716;8.962;2023-03-22T10:33:38;96078.16;;;15.63;55.96
71105;BME280;58760;48.716;8.962;2023-03-22T10:36:11;96087.81;;;15.95;51.63
71105;BME280;58760;48.716;8.962;2023-03-22T10:38:45;96083.75;;;15.86;48.09
71105;BME280;58760;48.716;8.962;2023-03-22T10:41:15;96086.94;;;16.01;49.17
71105;BME280;58760;48.716;8.962;2023-03-22T10:43:43;96083.81;;;16.04;49.01
71105;BME280;58760;48.716;8.962;2023-03-22T10:46:23;96071.94;;;16.25;48.27
71105;BME280;58760;48.716;8.962;2023-03-22T10:48:51;96089.06;;;16.42;46.70
71105;BME280;58760;48.716;8.962;2023-03-22T10:51:25;96081.00;;;16.24;45.04
71105;BME280;58760;48.716;8.962;2023-03-22T10:53:54;96079.50;;;16.28;46.63
71105;BME280;58760;48.716;8.962;2023-03-22T10:56:20;96072.38;;;16.22;46.58
71105;BME280;58760;48.716;8.962;2023-03-22T10:58:49;96087.06;;;16.38;48.06
71105;BME280;58760;48.716;8.962;2023-03-22T11:01:36;96073.50;;;16.57;45.28
71105;BME280;58760;48.716;8.962;2023-03-22T11:04:12;96071.22;;;16.61;44.68
71105;BME280;58760;48.716;8.962;2023-03-22T11:06:40;96072.94;;;16.73;45.17
71105;BME280;58760;48.716;8.962;2023-03-22T11:09:16;96070.69;;;16.70;46.05
71105;BME280;58760;48.716;8.962;2023-03-22T11:14:15;96072.34;;;16.90;43.64
71105;BME280;58760;48.716;8.962;2023-03-22T11:16:49;96068.38;;;17.10;43.15
71105;BME280;58760;48.716;8.962;2023-03-22T11:19:26;96067.13;;;17.13;43.61
71105;BME280;58760;48.716;8.962;2023-03-22T11:21:56;96066.91;;;17.44;43.03
71105;BME280;58760;48.716;8.962;2023-03-22T11:24:24;96074.66;;;17.52;43.28
71105;BME280;58760;48.716;8.962;2023-03-22T11:27:22;96071.50;;;17.73;44.38
71105;BME280;58760;48.716;8.962;2023-03-22T11:29:50;96066.94;;;17.74;43.47
71105;BME280;58760;48.716;8.962;2023-03-22T11:32:27;96058.00;;;17.92;43.41
71105;BME280;58760;48.716;8.962;2023-03-22T11:37:47;96060.47;;;18.05;39.88
71105;BME280;58760;48.716;8.962;2023-03-22T11:40:18;96062.47;;;17.98;40.15
71105;BME280;58760;48.716;8.962;2023-03-22T11:42:45;96062.72;;;18.31;42.08
71105;BME280;58760;48.716;8.962;2023-03-22T11:45:31;96059.00;;;18.44;41.45
71105;BME280;58760;48.716;8.962;2023-03-22T11:48:11;96051.53;;;18.57;39.46
71105;BME280;58760;48.716;8.962;2023-03-22T11:50:41;96045.22;;;18.87;37.68
71105;BME280;58760;48.716;8.962;2023-03-22T11:53:11;96043.94;;;19.29;37.91
71105;BME280;58760;48.716;8.962;2023-03-22T11:55:37;96038.06;;;19.44;37.99
71105;BME280;58760;48.716;8.962;2023-03-22T11:58:04;96039.03;;;19.26;37.71
71105;BME280;58760;48.716;8.962;2023-03-22T12:00:32;96031.06;;;19.88;35.52
71105;BME280;58760;48.716;8.962;2023-03-22T12:03:06;96029.53;;;20.25;36.09
71105;BME280;58760;48.716;8.962;2023-03-22T12:05:38;96027.88;;;21.12;34.73
71105;BME280;58760;48.716;8.962;2023-03-22T12:08:15;96028.53;;;21.24;34.23
71105;BME280;58760;48.716;8.962;2023-03-22T12:10:46;96026.75;;;20.20;35.62
71105;BME280;58760;48.716;8.962;2023-03-22T12:13:22;96018.94;;;20.35;35.32
71105;BME280;58760;48.716;8.962;2023-03-22T12:15:54;96019.44;;;20.32;34.48
71105;BME280;58760;48.716;8.962;2023-03-22T12:18:35;96018.53;;;21.20;34.78
71105;BME280;58760;48.716;8.962;2023-03-22T12:21:02;96015.44;;;20.95;34.66
71105;BME280;58760;48.716;8.962;2023-03-22T12:23:30;96013.06;;;20.38;34.28
71105;BME280;58760;48.716;8.962;2023-03-22T12:28:53;96005.22;;;19.58;35.10
71105;BME280;58760;48.716;8.962;2023-03-22T12:31:32;96000.78;;;19.80;36.00
71105;BME280;58760;48.716;8.962;2023-03-22T12:34:05;96002.34;;;20.43;34.68
71105;BME280;58760;48.716;8.962;2023-03-22T12:36:46;95999.56;;;21.15;31.57
71105;BME280;58760;48.716;8.962;2023-03-22T12:45:01;95980.78;;;22.47;31.12
71105;BME280;58760;48.716;8.962;2023-03-22T12:47:35;95998.94;;;22.15;30.54
71105;BME280;58760;48.716;8.962;2023-03-22T12:50:35;95986.47;;;22.82;31.86
71105;BME280;58760;48.716;8.962;2023-03-22T12:53:03;95981.66;;;23.00;30.70
71105;BME280;58760;48.716;8.962;2023-03-22T12:55:30;95982.66;;;22.78;29.94
71105;BME280;58760;48.716;8.962;2023-03-22T12:57:56;95975.41;;;24.07;29.78
71105;BME280;58760;48.716;8.962;2023-03-22T13:01:16;95960.84;;;25.22;27.37
71105;BME280;58760;48.716;8.962;2023-03-22T13:03:29;95969.47;;;24.40;28.01
71105;BME280;58760;48.716;8.962;2023-03-22T13:06:04;95962.06;;;25.45;27.63
71105;BME280;58760;48.716;8.962;2023-03-22T13:09:03;95965.06;;;26.55;26.17
71105;BME280;58760;48.716;8.962;2023-03-22T13:11:37;95955.50;;;26.58;26.42
71105;BME280;58760;48.716;8.962;2023-03-22T13:14:02;95968.84;;;25.47;26.74
71105;BME280;58760;48.716;8.962;2023-03-22T13:16:59;95958.28;;;25.41;27.63
71105;BME280;58760;48.716;8.962;2023-03-22T13:19:28;95966.97;;;26.55;26.19
71105;BME280;58760;48.716;8.962;2023-03-22T13:22:14;95949.19;;;26.38;26.21
71105;BME280;58760;48.716;8.962;2023-03-22T13:30:25;95934.28;;;26.83;25.90
71105;BME280;58760;48.716;8.962;2023-03-22T13:38:17;95928.13;;;27.44;22.49
71105;BME280;58760;48.716;8.962;2023-03-22T13:43:26;95934.44;;;27.58;23.20
71105;BME280;58760;48.716;8.962;2023-03-22T14:02:27;95921.47;;;25.20;26.20
71105;BME280;58760;48.716;8.962;2023-03-22T14:05:06;95908.34;;;26.91;24.43
71105;BME280;58760;48.716;8.962;2023-03-22T14:07:49;95895.81;;;27.51;23.84
71105;BME280;58760;48.716;8.962;2023-03-22T14:13:39;95897.75;;;25.74;26.97
71105;BME280;58760;48.716;8.962;2023-03-22T14:16:07;95894.31;;;25.97;25.83
71105;BME280;58760;48.716;8.962;2023-03-22T14:18:35;95913.72;;;24.93;26.92
71105;BME280;58760;48.716;8.962;2023-03-22T14:21:11;95905.44;;;26.01;25.28
71105;BME280;58760;48.716;8.962;2023-03-22T14:23:45;95909.41;;;27.14;24.29
71105;BME280;58760;48.716;8.962;2023-03-22T14:26:25;95890.13;;;27.85;22.90
71105;BME280;58760;48.716;8.962;2023-03-22T14:28:51;95896.72;;;26.57;25.06
71105;BME280;58760;48.716;8.962;2023-03-22T14:31:26;95886.09;;;27.45;24.57
71105;BME280;58760;48.716;8.962;2023-03-22T14:33:54;95882.00;;;28.31;23.03
71105;BME280;58760;48.716;8.962;2023-03-22T14:36:20;95881.81;;;28.41;22.78
71105;BME280;58760;48.716;8.962;2023-03-22T14:38:48;95883.88;;;28.76;22.41
71105;BME280;58760;48.716;8.962;2023-03-22T14:41:21;95879.75;;;28.00;24.23